createdAt,value
2022-12-25T00:00:29.574Z,12.13
2022-12-25T00:02:57.256Z,9.65
2022-12-25T00:05:31.329Z,11.15
2022-12-25T00:08:04.703Z,9.82
2022-12-25T00:10:45.218Z,10.05
2022-12-25T00:13:15.413Z,8.50
2022-12-25T00:15:51.461Z,10.25
2022-12-25T00:18:25.594Z,9.90
2022-12-25T00:21:06.531Z,9.18
2022-12-25T00:23:35.993Z,9.55
2022-12-25T00:26:11.903Z,9.05
2022-12-25T00:28:40.455Z,9.98
2022-12-25T00:31:29.353Z,10.48
2022-12-25T00:33:57.297Z,8.48
2022-12-25T00:36:28.339Z,10.10
2022-12-25T00:38:55.898Z,9.68
2022-12-25T00:41:29.699Z,9.07
2022-12-25T00:44:00.298Z,9.00
2022-12-25T00:46:27.761Z,8.32
2022-12-25T00:49:04.157Z,9.48
2022-12-25T00:51:32.191Z,9.45
2022-12-25T00:54:06.483Z,9.63
2022-12-25T00:56:34.177Z,9.23
2022-12-25T00:59:01.991Z,9.10
2022-12-25T01:01:32.890Z,9.95
2022-12-25T01:04:03.829Z,10.02
2022-12-25T01:06:38.515Z,8.43
2022-12-25T01:09:08.636Z,10.38
2022-12-25T01:11:39.467Z,8.23
2022-12-25T01:14:10.719Z,9.23
2022-12-25T01:16:42.019Z,9.45
2022-12-25T01:19:09.935Z,10.75
2022-12-25T01:21:40.208Z,9.63
2022-12-25T01:24:11.091Z,8.48
2022-12-25T01:26:44.008Z,7.70
2022-12-25T01:31:45.417Z,8.23
2022-12-25T01:34:16.472Z,9.00
2022-12-25T01:36:46.442Z,8.52
2022-12-25T01:39:23.204Z,8.50
2022-12-25T01:41:51.062Z,9.57
2022-12-25T01:44:39.892Z,8.98
2022-12-25T01:47:07.934Z,8.88
2022-12-25T01:49:42.154Z,8.82
2022-12-25T01:52:25.186Z,8.55
2022-12-25T01:55:05.275Z,8.60
2022-12-25T01:57:38.256Z,8.57
2022-12-25T02:02:48.697Z,8.07
2022-12-25T02:05:23.116Z,10.18
2022-12-25T02:07:58.848Z,7.65
2022-12-25T02:10:29.396Z,10.15
2022-12-25T02:13:03.564Z,8.77
2022-12-25T02:15:41.236Z,9.98
2022-12-25T02:18:16.112Z,7.70
2022-12-25T02:21:01.824Z,7.32
2022-12-25T02:23:56.900Z,7.90
2022-12-25T02:26:42.873Z,8.40
2022-12-25T02:29:45.500Z,9.05
2022-12-25T02:32:19.549Z,7.35
2022-12-25T02:35:03.399Z,7.75
2022-12-25T02:37:49.479Z,7.55
2022-12-25T02:40:36.978Z,6.95
2022-12-25T02:43:09.620Z,7.37
2022-12-25T02:46:00.473Z,7.57
2022-12-25T02:48:34.536Z,8.10
2022-12-25T02:51:09.996Z,7.25
2022-12-25T02:53:45.829Z,7.78
2022-12-25T02:56:19.832Z,8.23
2022-12-25T02:58:51.534Z,7.22
2022-12-25T03:01:25.783Z,7.87
2022-12-25T03:03:57.778Z,7.90
2022-12-25T03:06:33.472Z,7.43
2022-12-25T03:09:12.645Z,7.72
2022-12-25T03:11:50.744Z,7.90
2022-12-25T03:14:24.015Z,7.53
2022-12-25T03:16:55.439Z,6.50
2022-12-25T03:19:35.981Z,8.07
2022-12-25T03:22:10.776Z,7.90
2022-12-25T03:24:41.881Z,7.78
2022-12-25T03:27:12.137Z,7.18
2022-12-25T03:29:42.217Z,8.35
2022-12-25T03:32:39.062Z,7.82
2022-12-25T03:35:21.016Z,6.65
2022-12-25T03:38:23.475Z,6.05
2022-12-25T03:41:01.656Z,7.35
2022-12-25T03:44:18.287Z,7.62
2022-12-25T03:47:03.693Z,8.63
2022-12-25T03:49:42.136Z,8.57
2022-12-25T03:52:15.264Z,8.02
2022-12-25T03:57:15.868Z,7.32
2022-12-25T03:59:47.122Z,7.28
2022-12-25T04:02:15.165Z,7.10
2022-12-25T04:04:50.770Z,6.25
2022-12-25T04:07:18.609Z,7.12
2022-12-25T04:09:51.253Z,6.95
2022-12-25T04:12:21.647Z,8.13
2022-12-25T04:14:52.508Z,7.60
2022-12-25T04:17:25.693Z,7.40
2022-12-25T04:19:58.930Z,7.32
2022-12-25T04:22:29.388Z,7.95
2022-12-25T04:24:59.210Z,6.32
2022-12-25T04:27:33.033Z,6.57
2022-12-25T04:30:06.658Z,6.20
2022-12-25T04:32:40.438Z,6.45
2022-12-25T04:35:11.679Z,7.03
2022-12-25T04:37:41.929Z,7.43
2022-12-25T04:40:16.373Z,6.65
2022-12-25T04:42:46.618Z,7.78
2022-12-25T04:45:21.551Z,7.40
2022-12-25T04:47:49.323Z,6.07
2022-12-25T04:50:22.851Z,5.75
2022-12-25T04:52:50.260Z,7.35
2022-12-25T04:55:23.736Z,6.70
2022-12-25T04:57:51.067Z,6.50
2022-12-25T05:00:19.068Z,7.37
2022-12-25T05:02:46.932Z,6.35
2022-12-25T05:05:14.795Z,7.05
2022-12-25T05:07:45.135Z,6.57
2022-12-25T05:10:15.970Z,6.97
2022-12-25T05:12:46.982Z,6.28
2022-12-25T05:15:15.037Z,6.25
2022-12-25T05:17:46.455Z,6.82
2022-12-25T05:20:18.247Z,6.00
2022-12-25T05:22:49.207Z,6.45
2022-12-25T05:25:19.867Z,6.25
2022-12-25T05:27:53.850Z,6.82
2022-12-25T05:30:24.922Z,6.78
2022-12-25T05:32:57.768Z,6.90
2022-12-25T05:35:28.183Z,6.28
2022-12-25T05:37:55.659Z,6.12
2022-12-25T05:40:22.580Z,6.12
2022-12-25T05:42:49.737Z,4.97
2022-12-25T05:45:25.296Z,6.10
2022-12-25T05:48:00.114Z,7.18
2022-12-25T05:50:30.229Z,6.12
2022-12-25T05:53:07.728Z,5.65
2022-12-25T05:55:40.190Z,5.75
2022-12-25T05:58:12.147Z,5.53
2022-12-25T06:00:43.850Z,9.30
2022-12-25T06:03:13.744Z,5.87
2022-12-25T06:05:46.609Z,6.60
2022-12-25T06:08:16.496Z,9.93
2022-12-25T06:10:43.465Z,8.38
2022-12-25T06:13:16.714Z,5.93
2022-12-25T06:15:43.599Z,7.68
2022-12-25T06:18:13.679Z,6.45
2022-12-25T06:20:44.328Z,8.65
2022-12-25T06:23:11.285Z,6.43
2022-12-25T06:25:47.899Z,8.23
2022-12-25T06:28:20.263Z,6.30
2022-12-25T06:30:50.758Z,5.80
2022-12-25T06:33:20.560Z,9.82
2022-12-25T06:35:47.906Z,10.73
2022-12-25T06:38:14.889Z,12.15
2022-12-25T06:40:41.720Z,9.80
2022-12-25T06:43:14.228Z,8.85
2022-12-25T06:45:44.211Z,6.47
2022-12-25T06:48:11.052Z,6.05
2022-12-25T06:50:44.804Z,7.45
2022-12-25T06:53:17.833Z,8.43
2022-12-25T06:58:20.140Z,16.58
2022-12-25T07:00:50.612Z,14.90
2022-12-25T07:03:30.257Z,17.42
2022-12-25T07:06:06.321Z,17.23
2022-12-25T07:08:36.280Z,10.82
2022-12-25T07:11:06.413Z,16.42
2022-12-25T07:13:41.662Z,10.38
2022-12-25T07:16:14.937Z,10.43
2022-12-25T07:18:51.829Z,9.50
2022-12-25T07:21:20.874Z,11.82
2022-12-25T07:23:54.152Z,9.20
2022-12-25T07:26:21.073Z,15.60
2022-12-25T07:28:55.700Z,9.32
2022-12-25T07:31:25.173Z,18.15
2022-12-25T07:33:55.246Z,12.70
2022-12-25T07:36:26.218Z,11.85
2022-12-25T07:38:56.508Z,14.93
2022-12-25T07:41:30.434Z,15.85
2022-12-25T07:44:03.531Z,14.10
2022-12-25T07:49:07.753Z,14.05
2022-12-25T07:51:37.481Z,17.77
2022-12-25T07:54:04.683Z,21.15
2022-12-25T07:56:35.018Z,10.13
2022-12-25T07:59:08.758Z,12.37
2022-12-25T08:01:36.592Z,16.17
2022-12-25T08:04:07.299Z,16.27
2022-12-25T08:06:35.755Z,11.50
2022-12-25T08:09:12.203Z,14.82
2022-12-25T08:11:40.845Z,19.25
2022-12-25T08:14:09.656Z,19.58
2022-12-25T08:16:44.687Z,13.10
2022-12-25T08:19:15.055Z,10.77
2022-12-25T08:21:42.485Z,18.02
2022-12-25T08:24:14.859Z,16.48
2022-12-25T08:26:46.943Z,16.77
2022-12-25T08:29:20.442Z,21.63
2022-12-25T08:31:50.949Z,17.48
2022-12-25T08:34:25.288Z,17.67
2022-12-25T08:36:58.973Z,16.77
2022-12-25T08:39:27.054Z,13.98
2022-12-25T08:42:00.716Z,17.75
2022-12-25T08:44:30.491Z,16.27
2022-12-25T08:47:04.149Z,12.05
2022-12-25T08:49:36.801Z,20.02
2022-12-25T08:52:09.198Z,17.87
2022-12-25T08:54:41.301Z,11.20
2022-12-25T08:57:14.697Z,12.23
2022-12-25T08:59:50.659Z,14.05
2022-12-25T09:02:24.194Z,15.65
2022-12-25T09:04:59.912Z,12.35
2022-12-25T09:07:29.463Z,13.82
2022-12-25T09:10:02.282Z,14.38
2022-12-25T09:12:29.184Z,14.60
2022-12-25T09:14:56.174Z,12.30
2022-12-25T09:17:26.664Z,11.48
2022-12-25T09:20:00.184Z,12.55
2022-12-25T09:22:34.271Z,12.40
2022-12-25T09:25:07.397Z,13.68
2022-12-25T09:27:37.075Z,16.45
2022-12-25T09:30:12.962Z,11.43
2022-12-25T09:32:40.057Z,13.68
2022-12-25T09:35:13.946Z,10.40
2022-12-25T09:37:47.304Z,13.10
2022-12-25T09:40:19.043Z,11.98
2022-12-25T09:42:49.691Z,12.88
2022-12-25T09:45:39.035Z,9.93
2022-12-25T09:48:06.420Z,13.15
2022-12-25T09:50:50.530Z,10.35
2022-12-25T09:53:26.291Z,9.57
2022-12-25T09:56:05.214Z,11.65
2022-12-25T09:58:34.856Z,10.32
2022-12-25T10:01:33.180Z,10.48
2022-12-25T10:04:31.918Z,10.65
2022-12-25T10:07:46.228Z,11.38
2022-12-25T10:10:43.594Z,13.00
2022-12-25T10:13:37.862Z,9.60
2022-12-25T10:16:31.870Z,10.88
2022-12-25T10:19:16.911Z,8.57
2022-12-25T10:21:49.489Z,11.05
2022-12-25T10:24:26.894Z,9.95
2022-12-25T10:26:59.673Z,11.73
2022-12-25T10:29:35.217Z,8.93
2022-12-25T10:32:11.168Z,8.18
2022-12-25T10:34:41.344Z,10.40
2022-12-25T10:37:12.432Z,9.82
2022-12-25T10:39:46.000Z,11.25
2022-12-25T10:42:34.137Z,10.23
2022-12-25T10:45:04.707Z,10.57
2022-12-25T10:47:39.012Z,12.32
2022-12-25T10:50:26.487Z,9.60
2022-12-25T10:53:17.892Z,9.48
2022-12-25T10:55:57.638Z,8.40
2022-12-25T10:58:30.887Z,8.60
2022-12-25T11:01:05.579Z,9.43
2022-12-25T11:03:41.686Z,8.43
2022-12-25T11:06:26.603Z,7.32
2022-12-25T11:09:01.081Z,9.95
2022-12-25T11:11:35.157Z,12.30
2022-12-25T11:14:16.252Z,9.23
2022-12-25T11:16:49.944Z,8.73
2022-12-25T11:19:35.450Z,9.32
2022-12-25T11:22:20.313Z,9.25
2022-12-25T11:24:53.114Z,8.45
2022-12-25T11:27:28.771Z,10.40
2022-12-25T11:30:04.380Z,8.88
2022-12-25T11:32:36.446Z,12.57
2022-12-25T11:35:15.331Z,8.23
2022-12-25T11:37:47.801Z,8.32
2022-12-25T11:40:40.941Z,7.62
2022-12-25T11:43:19.640Z,7.72
2022-12-25T11:45:56.550Z,8.48
2022-12-25T11:48:23.467Z,7.70
2022-12-25T11:50:55.524Z,8.00
2022-12-25T11:53:36.997Z,8.00
2022-12-25T11:56:15.031Z,7.97
2022-12-25T11:59:01.871Z,9.25
2022-12-25T12:01:53.047Z,8.75
2022-12-25T12:04:43.886Z,7.60
2022-12-25T12:07:25.802Z,8.68
2022-12-25T12:10:05.109Z,7.35
2022-12-25T12:12:49.142Z,8.15
2022-12-25T12:15:35.780Z,8.63
2022-12-25T12:18:31.353Z,7.20
2022-12-25T12:21:10.801Z,9.02
2022-12-25T12:24:03.737Z,6.87
2022-12-25T12:26:39.011Z,8.90
2022-12-25T12:29:27.318Z,8.23
2022-12-25T12:32:19.844Z,7.22
2022-12-25T12:34:48.780Z,7.87
2022-12-25T12:37:36.260Z,7.72
2022-12-25T12:40:08.994Z,7.95
2022-12-25T12:42:46.060Z,8.57
2022-12-25T12:45:32.707Z,7.55
2022-12-25T12:48:14.210Z,10.15
2022-12-25T12:50:45.369Z,8.70
2022-12-25T12:53:26.716Z,10.77
2022-12-25T12:55:57.353Z,10.43
2022-12-25T12:58:36.405Z,13.95
2022-12-25T13:01:28.338Z,11.15
2022-12-25T13:04:30.445Z,16.37
2022-12-25T13:07:25.409Z,10.52
2022-12-25T13:10:05.386Z,10.27
2022-12-25T13:12:39.080Z,11.23
2022-12-25T13:15:26.636Z,11.73
2022-12-25T13:18:02.438Z,11.50
2022-12-25T13:20:57.629Z,11.20
2022-12-25T13:23:36.533Z,16.90
2022-12-25T13:26:17.676Z,11.20
2022-12-25T13:28:48.227Z,13.90
2022-12-25T13:31:31.617Z,13.62
2022-12-25T13:34:09.084Z,10.25
2022-12-25T13:36:40.416Z,13.62
2022-12-25T13:39:11.822Z,10.00
2022-12-25T13:41:50.919Z,19.92
2022-12-25T13:44:27.485Z,11.02
2022-12-25T13:47:28.903Z,14.73
2022-12-25T13:50:02.544Z,13.65
2022-12-25T13:52:40.233Z,14.48
2022-12-25T13:55:29.124Z,10.27
2022-12-25T13:58:03.965Z,14.90
2022-12-25T14:00:49.631Z,12.07
2022-12-25T14:03:29.069Z,10.23
2022-12-25T14:06:16.682Z,13.25
2022-12-25T14:08:45.575Z,10.63
2022-12-25T14:11:16.621Z,10.20
2022-12-25T14:13:47.742Z,12.37
2022-12-25T14:16:21.567Z,15.55
2022-12-25T14:19:00.875Z,10.32
2022-12-25T14:21:36.698Z,13.68
2022-12-25T14:24:05.391Z,10.43
2022-12-25T14:26:34.567Z,9.93
2022-12-25T14:29:15.772Z,12.63
2022-12-25T14:31:49.882Z,11.23
2022-12-25T14:34:26.426Z,15.43
2022-12-25T14:36:54.497Z,10.88
2022-12-25T14:39:31.862Z,17.87
2022-12-25T14:42:21.766Z,13.52
2022-12-25T14:45:26.686Z,11.45
2022-12-25T14:47:59.073Z,13.40
2022-12-25T14:50:39.543Z,10.82
2022-12-25T14:53:18.532Z,13.60
2022-12-25T14:55:57.535Z,14.30
2022-12-25T14:58:28.549Z,8.52
2022-12-25T15:00:58.694Z,10.13
2022-12-25T15:03:37.957Z,9.63
2022-12-25T15:06:28.543Z,13.68
2022-12-25T15:09:16.509Z,13.18
2022-12-25T15:11:56.562Z,10.48
2022-12-25T15:14:27.764Z,11.70
2022-12-25T15:17:01.263Z,10.55
2022-12-25T15:19:38.417Z,7.03
2022-12-25T15:22:14.270Z,8.27
2022-12-25T15:24:47.775Z,8.38
2022-12-25T15:27:19.973Z,7.35
2022-12-25T15:32:35.290Z,7.57
2022-12-25T15:35:08.561Z,8.18
2022-12-25T15:37:35.582Z,11.18
2022-12-25T15:40:06.721Z,10.40
2022-12-25T15:42:39.529Z,11.45
2022-12-25T15:45:15.486Z,11.02
2022-12-25T15:47:42.421Z,8.00
2022-12-25T15:50:15.945Z,10.32
2022-12-25T15:52:43.552Z,8.07
2022-12-25T15:55:10.684Z,9.10
2022-12-25T15:57:45.389Z,8.75
2022-12-25T16:00:18.863Z,6.45
2022-12-25T16:02:49.820Z,6.62
2022-12-25T16:05:19.876Z,7.05
2022-12-25T16:07:46.931Z,8.50
2022-12-25T16:10:17.752Z,8.07
2022-12-25T16:12:45.763Z,8.25
2022-12-25T16:15:14.809Z,7.47
2022-12-25T16:17:45.073Z,7.70
2022-12-25T16:20:18.153Z,6.75
2022-12-25T16:22:46.347Z,10.88
2022-12-25T16:25:19.373Z,7.62
2022-12-25T16:30:18.698Z,7.87
2022-12-25T16:32:51.880Z,7.57
2022-12-25T16:35:21.968Z,6.87
2022-12-25T16:37:49.036Z,7.12
2022-12-25T16:40:16.088Z,7.68
2022-12-25T16:42:46.103Z,7.78
2022-12-25T16:45:13.290Z,5.93
2022-12-25T16:47:40.193Z,7.05
2022-12-25T16:50:10.407Z,6.97
2022-12-25T16:52:37.316Z,6.05
2022-12-25T16:55:04.970Z,7.12
2022-12-25T16:57:34.890Z,9.75
2022-12-25T17:00:04.546Z,7.10
2022-12-25T17:02:31.481Z,6.70
2022-12-25T17:05:01.192Z,6.30
2022-12-25T17:07:27.960Z,7.22
2022-12-25T17:09:54.905Z,8.00
2022-12-25T17:12:24.567Z,5.78
2022-12-25T17:14:54.916Z,8.43
2022-12-25T17:17:24.609Z,7.10
2022-12-25T17:19:51.528Z,7.82
2022-12-25T17:22:18.468Z,7.93
2022-12-25T17:24:45.741Z,7.43
2022-12-25T17:27:12.703Z,8.80
2022-12-25T17:29:42.671Z,8.00
2022-12-25T17:32:13.569Z,7.57
2022-12-25T17:34:40.452Z,7.78
2022-12-25T17:37:10.821Z,8.75
2022-12-25T17:39:37.573Z,7.60
2022-12-25T17:42:07.716Z,7.85
2022-12-25T17:44:34.688Z,9.88
2022-12-25T17:47:04.140Z,12.15
2022-12-25T17:49:31.007Z,7.03
2022-12-25T17:52:01.206Z,11.18
2022-12-25T17:54:34.273Z,8.77
2022-12-25T17:59:29.759Z,11.10
2022-12-25T18:01:59.272Z,10.02
2022-12-25T18:04:28.682Z,30.50
2022-12-25T18:06:55.496Z,36.17
2022-12-25T18:09:28.975Z,43.80
2022-12-25T18:11:59.441Z,41.63
2022-12-25T18:14:28.054Z,33.92
2022-12-25T18:16:54.915Z,29.40
2022-12-25T18:19:21.694Z,27.85
2022-12-25T18:21:54.694Z,27.27
2022-12-25T18:26:48.143Z,23.02
2022-12-25T18:29:15.011Z,27.77
2022-12-25T18:31:44.525Z,23.85
2022-12-25T18:34:11.571Z,21.87
2022-12-25T18:36:44.254Z,21.42
2022-12-25T18:39:15.518Z,24.83
2022-12-25T18:41:42.327Z,19.65
2022-12-25T18:44:09.468Z,16.05
2022-12-25T18:46:36.334Z,18.98
2022-12-25T18:49:03.141Z,19.27
2022-12-25T18:51:36.857Z,20.67
2022-12-25T18:54:07.177Z,14.90
2022-12-25T18:56:38.020Z,15.55
2022-12-25T18:59:04.811Z,15.45
2022-12-25T19:01:34.928Z,14.73
2022-12-25T19:04:05.710Z,12.43
2022-12-25T19:06:32.985Z,17.02
2022-12-25T19:08:59.832Z,13.25
2022-12-25T19:11:26.900Z,15.35
2022-12-25T19:13:53.653Z,14.43
2022-12-25T19:16:23.281Z,13.50
2022-12-25T19:18:53.067Z,15.25
2022-12-25T19:21:23.234Z,13.07
2022-12-25T19:23:53.342Z,11.68
2022-12-25T19:26:23.535Z,17.10
2022-12-25T19:28:56.297Z,12.45
2022-12-25T19:31:26.064Z,14.27
2022-12-25T19:33:56.148Z,11.65
2022-12-25T19:36:25.952Z,14.57
2022-12-25T19:38:58.432Z,12.43
2022-12-25T19:41:25.489Z,13.50
2022-12-25T19:43:52.719Z,10.10
2022-12-25T19:46:27.502Z,8.90
2022-12-25T19:48:58.458Z,13.55
2022-12-25T19:51:28.921Z,10.70
2022-12-25T19:53:59.400Z,11.23
2022-12-25T19:56:30.210Z,11.00
2022-12-25T19:59:06.503Z,10.85
2022-12-25T20:01:36.461Z,9.95
2022-12-25T20:04:03.714Z,15.27
2022-12-25T20:06:35.379Z,14.02
2022-12-25T20:09:05.306Z,11.57
2022-12-25T20:11:33.747Z,17.12
2022-12-25T20:14:01.663Z,13.62
2022-12-25T20:16:28.560Z,12.82
2022-12-25T20:18:58.893Z,10.90
2022-12-25T20:21:26.375Z,11.75
2022-12-25T20:23:54.289Z,11.88
2022-12-25T20:26:24.515Z,11.38
2022-12-25T20:28:51.667Z,13.88
2022-12-25T20:31:25.937Z,11.57
2022-12-25T20:33:53.463Z,12.60
2022-12-25T20:36:20.377Z,11.25
2022-12-25T20:38:50.373Z,12.57
2022-12-25T20:41:28.735Z,11.80
2022-12-25T20:43:56.932Z,13.43
2022-12-25T20:46:24.632Z,15.23
2022-12-25T20:48:51.966Z,12.05
2022-12-25T20:51:25.215Z,13.77
2022-12-25T20:53:55.737Z,15.90
2022-12-25T20:56:27.241Z,15.70
2022-12-25T20:59:00.925Z,12.50
2022-12-25T21:01:30.235Z,23.08
2022-12-25T21:04:01.171Z,17.42
2022-12-25T21:06:28.371Z,14.50
2022-12-25T21:08:55.891Z,12.70
2022-12-25T21:11:23.427Z,12.73
2022-12-25T21:13:50.526Z,13.10
2022-12-25T21:16:21.605Z,13.55
2022-12-25T21:18:53.748Z,14.60
2022-12-25T21:21:22.166Z,15.57
2022-12-25T21:23:55.282Z,14.98
2022-12-25T21:28:57.387Z,13.43
2022-12-25T21:31:25.223Z,13.43
2022-12-25T21:33:53.201Z,14.20
2022-12-25T21:36:23.498Z,13.73
2022-12-25T21:39:02.573Z,13.00
2022-12-25T21:41:37.267Z,13.95
2022-12-25T21:44:08.187Z,15.52
2022-12-25T21:46:38.761Z,13.05
2022-12-25T21:49:06.828Z,15.35
2022-12-25T21:51:36.736Z,11.50
2022-12-25T21:54:08.827Z,18.33
2022-12-25T21:56:43.481Z,11.10
2022-12-25T21:59:13.832Z,13.45
2022-12-25T22:01:41.370Z,13.80
2022-12-25T22:04:14.238Z,12.73
2022-12-25T22:06:44.789Z,19.98
2022-12-25T22:09:14.995Z,13.30
2022-12-25T22:11:44.896Z,10.82
2022-12-25T22:14:50.474Z,17.15
2022-12-25T22:17:09.358Z,12.77
2022-12-25T22:19:36.194Z,11.25
2022-12-25T22:22:03.147Z,17.30
2022-12-25T22:24:30.342Z,13.27
2022-12-25T22:26:57.524Z,11.95
2022-12-25T22:29:31.271Z,11.23
2022-12-25T22:31:58.807Z,11.57
2022-12-25T22:34:29.013Z,12.43
2022-12-25T22:36:57.317Z,10.52
2022-12-25T22:39:25.153Z,13.85
2022-12-25T22:41:58.032Z,11.02
2022-12-25T22:44:27.072Z,14.73
2022-12-25T22:46:57.613Z,10.52
2022-12-25T22:49:25.276Z,11.00
2022-12-25T22:51:53.455Z,11.88
2022-12-25T22:54:22.079Z,10.80
2022-12-25T22:56:53.521Z,10.75
2022-12-25T22:59:23.140Z,11.65
2022-12-25T23:01:50.976Z,11.45
2022-12-25T23:04:18.129Z,11.63
2022-12-25T23:06:45.379Z,11.40
2022-12-25T23:09:19.004Z,23.35
2022-12-25T23:11:50.952Z,17.58
2022-12-25T23:14:17.764Z,16.00
2022-12-25T23:16:44.637Z,18.48
2022-12-25T23:19:13.326Z,14.80
2022-12-25T23:21:40.857Z,18.42
2022-12-25T23:24:10.045Z,17.15
2022-12-25T23:26:37.328Z,14.30
2022-12-25T23:29:06.659Z,15.43
2022-12-25T23:31:38.051Z,20.62
2022-12-25T23:34:05.916Z,20.35
2022-12-25T23:36:39.301Z,15.35
2022-12-25T23:39:10.626Z,13.18
2022-12-25T23:41:45.319Z,14.75
2022-12-25T23:44:15.383Z,14.52
2022-12-25T23:46:52.646Z,13.50
2022-12-25T23:49:21.074Z,14.00
2022-12-25T23:51:47.839Z,12.98
2022-12-25T23:54:22.042Z,14.20
2022-12-25T23:56:49.780Z,12.30
2022-12-25T23:59:17.263Z,13.18
